All
Gawa Airport YGAA Weather
There is no TAF data available at YGAA. Showing TAF data for YELD (28 mi SW).
ELC Terminal Area Forecast (no data for YGAA)
| Date | Time (ACST) | Flight Rules | Wind Dir. | Speed | Type | Height AGL (ft) | Visibility | Remarks | ||||||
|---|---|---|---|---|---|---|---|---|---|---|---|---|---|---|
There is no METAR data available at YGAA. Showing METAR data for YELD (28 mi SW).
Recent ELC METAR history (no data for YGAA)
| Date | Time (ACST) | Flight Rules | Wind Dir. | Speed | Type | Height AGL (ft) | Visibility | Temp (°C) | Temp (°F) | Dew Point (°C) | Dew Point (°F) | Rel. Humid. | Pressure | Density Altitude | Remarks |
|---|---|---|---|---|---|---|---|---|---|---|---|---|---|---|---|
| 08-May | 08:30PM | n/a | 150° | 11 kt | Missing | 27° | 80° | 22° | 71° | 74% | 1012 mb | 1,577 ft | |||
| 08-May | 07:30PM | n/a | 160° | 11 kt | Missing | 28° | 82° | 22° | 71° | 70% | 1011 mb | 1,726 ft | |||
| 08-May | 06:30PM | n/a | 150° | 7 kt | Missing | 28° | 82° | 23° | 73° | 74% | 1010 mb | 1,756 ft | |||
| 08-May | 05:30PM | n/a | 120° | 8 kt | Missing | 29° | 84° | 23° | 73° | 70% | 1009 mb | 1,905 ft | |||
| 08-May | 04:30PM | n/a | 110° | 9 kt | Missing | 31° | 87° | 23° | 73° | 63% | 1009 mb | 2,145 ft | |||
| 08-May | 03:30PM | n/a | 130° | 10 kt | Missing | 31° | 87° | 23° | 73° | 63% | 1009 mb | 2,145 ft | |||
| 08-May | 02:30PM | n/a | 120° | 9 kt | Missing | 32° | 89° | 22° | 71° | 56% | 1009 mb | 2,265 ft | |||
| 08-May | 01:30PM | n/a | 110° | 10 kt | Missing | 31° | 87° | 23° | 73° | 63% | 1009 mb | 2,145 ft | |||
| 08-May | 12:30PM | n/a | 130° | 10 kt | Missing | 30° | 86° | 23° | 73° | 66% | 1010 mb | 1,996 ft | |||
| 08-May | 11:30AM | n/a | 140° | 11 kt | Missing | 30° | 86° | 23° | 73° | 66% | 1011 mb | 1,966 ft | |||
| 08-May | 10:30AM | n/a | 130° | 13 kt | Missing | 29° | 84° | 23° | 73° | 70% | 1011 mb | 1,846 ft | |||
| 08-May | 09:30AM | n/a | 140° | 9 kt | Missing | 28° | 82° | 23° | 73° | 74% | 1012 mb | 1,697 ft | |||
| 08-May | 08:30AM | n/a | 160° | 8 kt | Missing | 26° | 78° | 22° | 71° | 79% | 1012 mb | 1,457 ft | |||
| 08-May | 07:30AM | n/a | 170° | 5 kt | Missing | 24° | 75° | 23° | 73° | 94% | 1011 mb | 1,246 ft | |||
| 08-May | 06:30AM | n/a | 180° | 3 kt | Missing | 22° | 71° | 22° | 71° | 100% | 1011 mb | 1,006 ft | |||
| 08-May | 05:30AM | n/a | 150° | 5 kt | Missing | 23° | 73° | 22° | 71° | 94% | 1011 mb | 1,126 ft | |||
| 08-May | 04:30AM | n/a | 160° | 7 kt | Missing | 24° | 75° | 22° | 71° | 89% | 1010 mb | 1,276 ft | |||
| 08-May | 03:30AM | n/a | 160° | 7 kt | Missing | 24° | 75° | 23° | 73° | 94% | 1011 mb | 1,246 ft | |||
| 08-May | 02:30AM | n/a | 160° | 8 kt | Missing | 24° | 75° | 22° | 71° | 89% | 1011 mb | 1,246 ft | |||
| 08-May | 01:30AM | n/a | 160° | 8 kt | Missing | 24° | 75° | 22° | 71° | 89% | 1011 mb | 1,246 ft | |||
| 08-May | 12:30AM | n/a | 160° | 10 kt | Missing | 25° | 77° | 22° | 71° | 83% | 1012 mb | 1,337 ft | |||
| 07-May | 11:30PM | n/a | 160° | 10 kt | Missing | 25° | 77° | 22° | 71° | 83% | 1012 mb | 1,337 ft | |||
| 07-May | 10:30PM | n/a | 160° | 10 kt | Missing | 25° | 77° | 22° | 71° | 83% | 1012 mb | 1,337 ft | |||
| 07-May | 09:30PM | n/a | 170° | 11 kt | Missing | 26° | 78° | 22° | 71° | 79% | 1013 mb | 1,427 ft |
Login
| Your browser is unsupported. upgrade your browser |
